sensor_id;sensor_type;location;lat;lon;timestamp;temperature;humidity
68439;SHT31;55421;51.600;5.718;2022-08-18T00:02:01;21.06;79.51
68439;SHT31;55421;51.600;5.718;2022-08-18T00:04:32;21.07;79.50
68439;SHT31;55421;51.600;5.718;2022-08-18T00:07:07;21.08;79.58
68439;SHT31;55421;51.600;5.718;2022-08-18T00:09:38;21.12;79.67
68439;SHT31;55421;51.600;5.718;2022-08-18T00:12:08;21.15;79.58
68439;SHT31;55421;51.600;5.718;2022-08-18T00:14:42;21.17;79.63
68439;SHT31;55421;51.600;5.718;2022-08-18T00:17:10;21.19;79.61
68439;SHT31;55421;51.600;5.718;2022-08-18T00:19:38;21.18;79.52
68439;SHT31;55421;51.600;5.718;2022-08-18T00:22:04;21.18;79.56
68439;SHT31;55421;51.600;5.718;2022-08-18T00:24:31;21.17;79.57
68439;SHT31;55421;51.600;5.718;2022-08-18T00:26:57;21.18;79.54
68439;SHT31;55421;51.600;5.718;2022-08-18T00:29:23;21.18;79.68
68439;SHT31;55421;51.600;5.718;2022-08-18T00:31:50;21.19;79.60
68439;SHT31;55421;51.600;5.718;2022-08-18T00:34:16;21.16;79.68
68439;SHT31;55421;51.600;5.718;2022-08-18T00:36:43;21.15;79.70
68439;SHT31;55421;51.600;5.718;2022-08-18T00:39:09;21.12;79.74
68439;SHT31;55421;51.600;5.718;2022-08-18T00:41:36;21.10;79.82
68439;SHT31;55421;51.600;5.718;2022-08-18T00:44:02;21.09;79.90
68439;SHT31;55421;51.600;5.718;2022-08-18T00:46:30;21.10;80.00
68439;SHT31;55421;51.600;5.718;2022-08-18T00:49:01;21.10;80.02
68439;SHT31;55421;51.600;5.718;2022-08-18T00:51:34;21.10;80.10
68439;SHT31;55421;51.600;5.718;2022-08-18T00:54:11;21.10;80.08
68439;SHT31;55421;51.600;5.718;2022-08-18T00:56:44;21.11;80.08
68439;SHT31;55421;51.600;5.718;2022-08-18T00:59:26;21.14;80.02
68439;SHT31;55421;51.600;5.718;2022-08-18T01:01:58;21.16;79.99
68439;SHT31;55421;51.600;5.718;2022-08-18T01:04:33;21.19;79.93
68439;SHT31;55421;51.600;5.718;2022-08-18T01:07:49;21.23;79.91
68439;SHT31;55421;51.600;5.718;2022-08-18T01:10:17;21.21;79.90
68439;SHT31;55421;51.600;5.718;2022-08-18T01:12:48;21.20;79.90
68439;SHT31;55421;51.600;5.718;2022-08-18T01:15:20;21.19;79.88
68439;SHT31;55421;51.600;5.718;2022-08-18T01:17:49;21.17;79.91
68439;SHT31;55421;51.600;5.718;2022-08-18T01:20:51;21.13;79.98
68439;SHT31;55421;51.600;5.718;2022-08-18T01:23:49;21.14;80.10
68439;SHT31;55421;51.600;5.718;2022-08-18T01:26:19;21.12;80.13
68439;SHT31;55421;51.600;5.718;2022-08-18T01:28:49;21.09;80.20
68439;SHT31;55421;51.600;5.718;2022-08-18T01:31:35;21.04;80.27
68439;SHT31;55421;51.600;5.718;2022-08-18T01:34:07;20.99;80.38
68439;SHT31;55421;51.600;5.718;2022-08-18T01:36:37;20.96;80.44
68439;SHT31;55421;51.600;5.718;2022-08-18T01:39:07;20.94;80.50
68439;SHT31;55421;51.600;5.718;2022-08-18T01:41:38;20.94;80.51
68439;SHT31;55421;51.600;5.718;2022-08-18T01:44:05;20.93;80.53
68439;SHT31;55421;51.600;5.718;2022-08-18T01:46:36;20.91;80.49
68439;SHT31;55421;51.600;5.718;2022-08-18T01:49:06;20.91;80.53
68439;SHT31;55421;51.600;5.718;2022-08-18T01:51:35;20.91;80.50
68439;SHT31;55421;51.600;5.718;2022-08-18T01:54:06;20.95;80.45
68439;SHT31;55421;51.600;5.718;2022-08-18T01:56:36;20.99;80.32
68439;SHT31;55421;51.600;5.718;2022-08-18T01:59:03;21.00;80.19
68439;SHT31;55421;51.600;5.718;2022-08-18T02:01:31;21.01;80.16
68439;SHT31;55421;51.600;5.718;2022-08-18T02:04:04;21.02;80.10
68439;SHT31;55421;51.600;5.718;2022-08-18T02:06:34;21.01;80.07
68439;SHT31;55421;51.600;5.718;2022-08-18T02:09:00;20.97;80.00
68439;SHT31;55421;51.600;5.718;2022-08-18T02:11:27;20.91;80.00
68439;SHT31;55421;51.600;5.718;2022-08-18T02:13:53;20.86;80.00
68439;SHT31;55421;51.600;5.718;2022-08-18T02:16:19;20.81;80.05
68439;SHT31;55421;51.600;5.718;2022-08-18T02:18:46;20.76;80.07
68439;SHT31;55421;51.600;5.718;2022-08-18T02:21:13;20.72;80.19
68439;SHT31;55421;51.600;5.718;2022-08-18T02:23:43;20.68;80.19
68439;SHT31;55421;51.600;5.718;2022-08-18T02:26:12;20.63;80.20
68439;SHT31;55421;51.600;5.718;2022-08-18T02:28:42;20.63;80.22
68439;SHT31;55421;51.600;5.718;2022-08-18T02:31:10;20.65;80.26
68439;SHT31;55421;51.600;5.718;2022-08-18T02:33:43;20.66;80.30
68439;SHT31;55421;51.600;5.718;2022-08-18T02:36:11;20.66;80.30
68439;SHT31;55421;51.600;5.718;2022-08-18T02:38:38;20.67;80.30
68439;SHT31;55421;51.600;5.718;2022-08-18T02:41:08;20.67;80.29
68439;SHT31;55421;51.600;5.718;2022-08-18T02:43:37;20.68;80.27
68439;SHT31;55421;51.600;5.718;2022-08-18T02:46:05;20.67;80.21
68439;SHT31;55421;51.600;5.718;2022-08-18T02:48:32;20.67;80.23
68439;SHT31;55421;51.600;5.718;2022-08-18T02:51:03;20.67;80.19
68439;SHT31;55421;51.600;5.718;2022-08-18T02:53:34;20.66;80.12
68439;SHT31;55421;51.600;5.718;2022-08-18T02:56:12;20.65;80.06
68439;SHT31;55421;51.600;5.718;2022-08-18T02:58:51;20.63;80.03
68439;SHT31;55421;51.600;5.718;2022-08-18T03:01:26;20.60;79.98
68439;SHT31;55421;51.600;5.718;2022-08-18T03:04:03;20.60;79.90
68439;SHT31;55421;51.600;5.718;2022-08-18T03:06:34;20.58;79.90
68439;SHT31;55421;51.600;5.718;2022-08-18T03:09:03;20.55;79.86
68439;SHT31;55421;51.600;5.718;2022-08-18T03:11:31;20.51;79.78
68439;SHT31;55421;51.600;5.718;2022-08-18T03:13:58;20.46;79.80
68439;SHT31;55421;51.600;5.718;2022-08-18T03:16:26;20.40;79.76
68439;SHT31;55421;51.600;5.718;2022-08-18T03:18:56;20.35;79.71
68439;SHT31;55421;51.600;5.718;2022-08-18T03:21:23;20.32;79.70
68439;SHT31;55421;51.600;5.718;2022-08-18T03:23:52;20.29;79.70
68439;SHT31;55421;51.600;5.718;2022-08-18T03:26:21;20.25;79.70
68439;SHT31;55421;51.600;5.718;2022-08-18T03:28:51;20.24;79.70
68439;SHT31;55421;51.600;5.718;2022-08-18T03:31:20;20.22;79.77
68439;SHT31;55421;51.600;5.718;2022-08-18T03:33:50;20.19;79.74
68439;SHT31;55421;51.600;5.718;2022-08-18T03:36:20;20.15;79.67
68439;SHT31;55421;51.600;5.718;2022-08-18T03:38:50;20.10;79.71
68439;SHT31;55421;51.600;5.718;2022-08-18T03:41:20;20.06;79.91
68439;SHT31;55421;51.600;5.718;2022-08-18T03:43:50;20.05;79.88
68439;SHT31;55421;51.600;5.718;2022-08-18T03:46:18;19.99;79.80
68439;SHT31;55421;51.600;5.718;2022-08-18T03:48:47;19.91;79.97
68439;SHT31;55421;51.600;5.718;2022-08-18T03:51:16;19.85;80.05
68439;SHT31;55421;51.600;5.718;2022-08-18T03:53:50;19.81;80.16
68439;SHT31;55421;51.600;5.718;2022-08-18T03:56:22;19.82;80.26
68439;SHT31;55421;51.600;5.718;2022-08-18T03:58:53;19.83;80.30
68439;SHT31;55421;51.600;5.718;2022-08-18T04:01:24;19.87;80.31
68439;SHT31;55421;51.600;5.718;2022-08-18T04:03:54;19.90;80.40
68439;SHT31;55421;51.600;5.718;2022-08-18T04:06:30;19.95;80.45
68439;SHT31;55421;51.600;5.718;2022-08-18T04:09:01;19.97;80.51
68439;SHT31;55421;51.600;5.718;2022-08-18T04:11:31;19.99;80.59
68439;SHT31;55421;51.600;5.718;2022-08-18T04:14:01;20.03;80.59
68439;SHT31;55421;51.600;5.718;2022-08-18T04:16:29;20.05;80.50
68439;SHT31;55421;51.600;5.718;2022-08-18T04:19:03;20.06;80.51
68439;SHT31;55421;51.600;5.718;2022-08-18T04:21:32;20.09;80.51
68439;SHT31;55421;51.600;5.718;2022-08-18T04:24:04;20.12;80.51
68439;SHT31;55421;51.600;5.718;2022-08-18T04:26:34;20.11;80.50
68439;SHT31;55421;51.600;5.718;2022-08-18T04:29:13;20.08;80.57
68439;SHT31;55421;51.600;5.718;2022-08-18T04:31:43;20.09;80.68
68439;SHT31;55421;51.600;5.718;2022-08-18T04:34:10;20.14;80.67
68439;SHT31;55421;51.600;5.718;2022-08-18T04:36:38;20.17;80.60
68439;SHT31;55421;51.600;5.718;2022-08-18T04:39:07;20.20;80.59
68439;SHT31;55421;51.600;5.718;2022-08-18T04:41:36;20.19;80.59
68439;SHT31;55421;51.600;5.718;2022-08-18T04:44:06;20.16;80.63
68439;SHT31;55421;51.600;5.718;2022-08-18T04:46:38;20.15;80.74
68439;SHT31;55421;51.600;5.718;2022-08-18T04:49:10;20.17;80.74
68439;SHT31;55421;51.600;5.718;2022-08-18T04:51:39;20.17;80.70
68439;SHT31;55421;51.600;5.718;2022-08-18T04:54:31;20.20;80.70
68439;SHT31;55421;51.600;5.718;2022-08-18T04:57:07;20.23;80.66
68439;SHT31;55421;51.600;5.718;2022-08-18T04:59:38;20.24;80.61
68439;SHT31;55421;51.600;5.718;2022-08-18T05:02:08;20.26;80.60
68439;SHT31;55421;51.600;5.718;2022-08-18T05:04:36;20.30;80.56
68439;SHT31;55421;51.600;5.718;2022-08-18T05:07:06;20.33;80.50
68439;SHT31;55421;51.600;5.718;2022-08-18T05:09:36;20.38;80.43
68439;SHT31;55421;51.600;5.718;2022-08-18T05:12:04;20.38;80.34
68439;SHT31;55421;51.600;5.718;2022-08-18T05:14:33;20.36;80.35
68439;SHT31;55421;51.600;5.718;2022-08-18T05:17:01;20.35;80.40
68439;SHT31;55421;51.600;5.718;2022-08-18T05:19:29;20.38;80.38
68439;SHT31;55421;51.600;5.718;2022-08-18T05:21:57;20.43;80.34
68439;SHT31;55421;51.600;5.718;2022-08-18T05:24:24;20.47;80.23
68439;SHT31;55421;51.600;5.718;2022-08-18T05:26:54;20.51;80.20
68439;SHT31;55421;51.600;5.718;2022-08-18T05:29:21;20.53;80.13
68439;SHT31;55421;51.600;5.718;2022-08-18T05:31:48;20.55;80.10
68439;SHT31;55421;51.600;5.718;2022-08-18T05:34:17;20.56;80.03
68439;SHT31;55421;51.600;5.718;2022-08-18T05:42:17;20.64;79.95
68439;SHT31;55421;51.600;5.718;2022-08-18T05:44:48;20.67;80.00
68439;SHT31;55421;51.600;5.718;2022-08-18T05:49:56;20.67;79.95
68439;SHT31;55421;51.600;5.718;2022-08-18T05:52:32;20.69;79.98
68439;SHT31;55421;51.600;5.718;2022-08-18T05:55:13;20.72;79.90
68439;SHT31;55421;51.600;5.718;2022-08-18T05:58:06;20.73;79.90
68439;SHT31;55421;51.600;5.718;2022-08-18T06:00:41;20.76;79.88
68439;SHT31;55421;51.600;5.718;2022-08-18T06:03:20;20.76;79.82
68439;SHT31;55421;51.600;5.718;2022-08-18T06:08:29;20.79;79.74
68439;SHT31;55421;51.600;5.718;2022-08-18T06:11:06;20.82;79.76
68439;SHT31;55421;51.600;5.718;2022-08-18T06:13:38;20.88;79.68
68439;SHT31;55421;51.600;5.718;2022-08-18T06:25:16;21.02;79.41
68439;SHT31;55421;51.600;5.718;2022-08-18T06:28:16;21.03;79.26
68439;SHT31;55421;51.600;5.718;2022-08-18T06:33:45;21.03;79.40
68439;SHT31;55421;51.600;5.718;2022-08-18T06:39:31;20.95;79.15
68439;SHT31;55421;51.600;5.718;2022-08-18T06:42:07;20.95;79.30
68439;SHT31;55421;51.600;5.718;2022-08-18T06:50:45;21.04;79.11
68439;SHT31;55421;51.600;5.718;2022-08-18T06:53:18;21.05;79.12
68439;SHT31;55421;51.600;5.718;2022-08-18T06:55:47;21.07;79.13
68439;SHT31;55421;51.600;5.718;2022-08-18T07:03:18;21.16;79.11
68439;SHT31;55421;51.600;5.718;2022-08-18T07:08:49;21.35;79.02
68439;SHT31;55421;51.600;5.718;2022-08-18T07:11:20;21.50;78.99
68439;SHT31;55421;51.600;5.718;2022-08-18T07:13:48;21.63;78.64
68439;SHT31;55421;51.600;5.718;2022-08-18T07:16:22;21.68;78.42
68439;SHT31;55421;51.600;5.718;2022-08-18T07:19:05;21.70;78.15
68439;SHT31;55421;51.600;5.718;2022-08-18T07:21:34;21.74;78.17
68439;SHT31;55421;51.600;5.718;2022-08-18T07:32:43;21.98;77.31
68439;SHT31;55421;51.600;5.718;2022-08-18T07:35:17;22.03;77.26
68439;SHT31;55421;51.600;5.718;2022-08-18T07:37:52;22.08;76.87
68439;SHT31;55421;51.600;5.718;2022-08-18T07:43:14;22.29;75.96
68439;SHT31;55421;51.600;5.718;2022-08-18T07:45:50;22.34;75.56
68439;SHT31;55421;51.600;5.718;2022-08-18T07:48:30;22.38;75.34
68439;SHT31;55421;51.600;5.718;2022-08-18T07:57:09;22.53;74.90
68439;SHT31;55421;51.600;5.718;2022-08-18T07:59:56;22.53;74.77
68439;SHT31;55421;51.600;5.718;2022-08-18T08:05:42;22.61;74.64
68439;SHT31;55421;51.600;5.718;2022-08-18T08:11:42;22.68;74.21
68439;SHT31;55421;51.600;5.718;2022-08-18T08:14:41;22.68;74.17
68439;SHT31;55421;51.600;5.718;2022-08-18T08:17:24;22.66;74.29
68439;SHT31;55421;51.600;5.718;2022-08-18T08:32:07;22.68;73.74
68439;SHT31;55421;51.600;5.718;2022-08-18T08:41:00;22.92;73.39
68439;SHT31;55421;51.600;5.718;2022-08-18T08:43:39;23.04;73.19
68439;SHT31;55421;51.600;5.718;2022-08-18T08:46:22;23.05;72.93
68439;SHT31;55421;51.600;5.718;2022-08-18T08:48:58;23.07;72.68
68439;SHT31;55421;51.600;5.718;2022-08-18T08:51:43;23.09;72.63
68439;SHT31;55421;51.600;5.718;2022-08-18T08:57:00;23.10;72.57
68439;SHT31;55421;51.600;5.718;2022-08-18T08:59:28;23.11;72.47
68439;SHT31;55421;51.600;5.718;2022-08-18T09:04:38;23.08;72.18
68439;SHT31;55421;51.600;5.718;2022-08-18T09:12:36;23.24;72.13
68439;SHT31;55421;51.600;5.718;2022-08-18T09:18:55;23.43;71.46
68439;SHT31;55421;51.600;5.718;2022-08-18T09:24:30;24.04;70.88
68439;SHT31;55421;51.600;5.718;2022-08-18T09:29:50;24.33;69.34
68439;SHT31;55421;51.600;5.718;2022-08-18T09:40:57;24.30;69.11
68439;SHT31;55421;51.600;5.718;2022-08-18T09:51:50;24.01;68.83
68439;SHT31;55421;51.600;5.718;2022-08-18T09:54:25;23.92;69.07
68439;SHT31;55421;51.600;5.718;2022-08-18T10:01:58;23.81;69.31
68439;SHT31;55421;51.600;5.718;2022-08-18T10:04:40;23.87;69.59
68439;SHT31;55421;51.600;5.718;2022-08-18T10:21:21;25.54;65.33
68439;SHT31;55421;51.600;5.718;2022-08-18T10:29:04;25.35;65.28
68439;SHT31;55421;51.600;5.718;2022-08-18T10:37:41;25.43;64.59
68439;SHT31;55421;51.600;5.718;2022-08-18T10:40:14;25.40;64.93
68439;SHT31;55421;51.600;5.718;2022-08-18T10:43:07;25.38;65.02
68439;SHT31;55421;51.600;5.718;2022-08-18T10:45:43;25.37;64.45
68439;SHT31;55421;51.600;5.718;2022-08-18T10:50:55;25.35;64.44
68439;SHT31;55421;51.600;5.718;2022-08-18T10:53:40;25.38;64.45
68439;SHT31;55421;51.600;5.718;2022-08-18T10:59:24;25.48;63.35
68439;SHT31;55421;51.600;5.718;2022-08-18T11:05:22;25.45;62.93
68439;SHT31;55421;51.600;5.718;2022-08-18T11:07:57;25.42;63.03
68439;SHT31;55421;51.600;5.718;2022-08-18T11:13:18;25.36;62.58
68439;SHT31;55421;51.600;5.718;2022-08-18T11:19:11;25.38;62.57
68439;SHT31;55421;51.600;5.718;2022-08-18T11:21:42;25.41;62.45
68439;SHT31;55421;51.600;5.718;2022-08-18T11:24:26;25.59;62.25
68439;SHT31;55421;51.600;5.718;2022-08-18T11:26:55;25.63;61.65
68439;SHT31;55421;51.600;5.718;2022-08-18T11:29:41;25.70;61.75
68439;SHT31;55421;51.600;5.718;2022-08-18T11:43:01;25.81;61.03
68439;SHT31;55421;51.600;5.718;2022-08-18T11:45:46;25.99;60.83
68439;SHT31;55421;51.600;5.718;2022-08-18T11:48:31;26.20;60.49
68439;SHT31;55421;51.600;5.718;2022-08-18T11:51:20;26.41;60.07
68439;SHT31;55421;51.600;5.718;2022-08-18T11:56:44;26.70;59.07
68439;SHT31;55421;51.600;5.718;2022-08-18T12:02:00;27.07;58.68
68439;SHT31;55421;51.600;5.718;2022-08-18T12:04:28;27.22;58.08
68439;SHT31;55421;51.600;5.718;2022-08-18T12:07:10;27.28;57.51
68439;SHT31;55421;51.600;5.718;2022-08-18T12:10:13;27.32;57.20
68439;SHT31;55421;51.600;5.718;2022-08-18T12:12:49;27.35;56.91
68439;SHT31;55421;51.600;5.718;2022-08-18T12:17:44;27.33;56.17
68439;SHT31;55421;51.600;5.718;2022-08-18T12:20:13;27.23;56.39
68439;SHT31;55421;51.600;5.718;2022-08-18T12:22:42;27.10;56.14
68439;SHT31;55421;51.600;5.718;2022-08-18T12:25:12;27.04;56.49
68439;SHT31;55421;51.600;5.718;2022-08-18T12:27:42;26.99;55.91
68439;SHT31;55421;51.600;5.718;2022-08-18T12:30:10;26.96;56.37
68439;SHT31;55421;51.600;5.718;2022-08-18T12:32:37;26.98;56.49
68439;SHT31;55421;51.600;5.718;2022-08-18T12:35:05;27.04;56.16
68439;SHT31;55421;51.600;5.718;2022-08-18T12:37:35;27.09;55.63
68439;SHT31;55421;51.600;5.718;2022-08-18T12:40:03;27.14;55.46
68439;SHT31;55421;51.600;5.718;2022-08-18T12:42:30;27.11;55.03
68439;SHT31;55421;51.600;5.718;2022-08-18T12:44:57;27.04;54.16
68439;SHT31;55421;51.600;5.718;2022-08-18T12:47:24;27.00;54.67
68439;SHT31;55421;51.600;5.718;2022-08-18T12:49:52;26.99;55.21
68439;SHT31;55421;51.600;5.718;2022-08-18T12:52:19;26.98;55.22
68439;SHT31;55421;51.600;5.718;2022-08-18T12:54:46;26.96;55.52
68439;SHT31;55421;51.600;5.718;2022-08-18T12:57:21;26.91;55.63
68439;SHT31;55421;51.600;5.718;2022-08-18T12:59:51;26.85;56.10
68439;SHT31;55421;51.600;5.718;2022-08-18T13:02:20;26.85;56.32
68439;SHT31;55421;51.600;5.718;2022-08-18T13:04:47;26.84;56.23
68439;SHT31;55421;51.600;5.718;2022-08-18T13:07:13;26.85;56.33
68439;SHT31;55421;51.600;5.718;2022-08-18T13:09:43;26.85;56.29
68439;SHT31;55421;51.600;5.718;2022-08-18T13:12:10;26.84;56.46
68439;SHT31;55421;51.600;5.718;2022-08-18T13:14:38;26.84;56.79
68439;SHT31;55421;51.600;5.718;2022-08-18T13:17:05;26.86;56.89
68439;SHT31;55421;51.600;5.718;2022-08-18T13:19:31;26.89;56.62
68439;SHT31;55421;51.600;5.718;2022-08-18T13:21:58;26.89;56.30
68439;SHT31;55421;51.600;5.718;2022-08-18T13:24:24;26.93;56.27
68439;SHT31;55421;51.600;5.718;2022-08-18T13:26:50;27.07;56.08
68439;SHT31;55421;51.600;5.718;2022-08-18T13:29:17;27.19;55.82
68439;SHT31;55421;51.600;5.718;2022-08-18T13:31:44;27.22;55.23
68439;SHT31;55421;51.600;5.718;2022-08-18T13:34:12;27.21;55.35
68439;SHT31;55421;51.600;5.718;2022-08-18T13:36:38;27.21;54.98
68439;SHT31;55421;51.600;5.718;2022-08-18T13:39:14;27.19;54.77
68439;SHT31;55421;51.600;5.718;2022-08-18T13:41:44;27.18;54.74
68439;SHT31;55421;51.600;5.718;2022-08-18T13:44:14;27.16;54.85
68439;SHT31;55421;51.600;5.718;2022-08-18T13:46:44;27.16;54.98
68439;SHT31;55421;51.600;5.718;2022-08-18T13:51:45;27.41;55.21
68439;SHT31;55421;51.600;5.718;2022-08-18T13:54:19;27.50;55.30
68439;SHT31;55421;51.600;5.718;2022-08-18T13:56:49;27.58;54.98
68439;SHT31;55421;51.600;5.718;2022-08-18T13:59:19;27.65;54.57
68439;SHT31;55421;51.600;5.718;2022-08-18T14:01:47;27.69;54.02
68439;SHT31;55421;51.600;5.718;2022-08-18T14:04:16;27.72;54.17
68439;SHT31;55421;51.600;5.718;2022-08-18T14:06:43;27.69;53.97
68439;SHT31;55421;51.600;5.718;2022-08-18T14:09:10;27.64;54.54
68439;SHT31;55421;51.600;5.718;2022-08-18T14:11:38;27.60;54.31
68439;SHT31;55421;51.600;5.718;2022-08-18T14:14:05;27.52;54.30
68439;SHT31;55421;51.600;5.718;2022-08-18T14:16:31;27.44;54.44
68439;SHT31;55421;51.600;5.718;2022-08-18T14:18:59;27.41;54.77
68439;SHT31;55421;51.600;5.718;2022-08-18T14:21:48;27.42;54.88
68439;SHT31;55421;51.600;5.718;2022-08-18T14:24:36;27.44;54.81
68439;SHT31;55421;51.600;5.718;2022-08-18T14:27:40;27.43;54.82
68439;SHT31;55421;51.600;5.718;2022-08-18T14:30:09;27.44;54.56
68439;SHT31;55421;51.600;5.718;2022-08-18T14:32:38;27.42;54.66
68439;SHT31;55421;51.600;5.718;2022-08-18T14:35:08;27.41;54.77
68439;SHT31;55421;51.600;5.718;2022-08-18T14:37:36;27.38;54.78
68439;SHT31;55421;51.600;5.718;2022-08-18T14:40:04;27.38;54.69
68439;SHT31;55421;51.600;5.718;2022-08-18T14:42:32;27.37;54.41
68439;SHT31;55421;51.600;5.718;2022-08-18T14:45:00;27.31;54.49
68439;SHT31;55421;51.600;5.718;2022-08-18T14:47:26;27.26;54.64
68439;SHT31;55421;51.600;5.718;2022-08-18T14:49:53;27.24;54.76
68439;SHT31;55421;51.600;5.718;2022-08-18T14:52:22;27.22;54.51
68439;SHT31;55421;51.600;5.718;2022-08-18T14:54:50;27.17;54.10
68439;SHT31;55421;51.600;5.718;2022-08-18T14:57:17;27.14;54.09
68439;SHT31;55421;51.600;5.718;2022-08-18T14:59:43;27.11;54.12
68439;SHT31;55421;51.600;5.718;2022-08-18T15:02:11;27.12;54.28
68439;SHT31;55421;51.600;5.718;2022-08-18T15:04:41;27.14;54.16
68439;SHT31;55421;51.600;5.718;2022-08-18T15:07:09;27.15;54.21
68439;SHT31;55421;51.600;5.718;2022-08-18T15:09:36;27.19;54.12
68439;SHT31;55421;51.600;5.718;2022-08-18T15:12:02;27.22;53.99
68439;SHT31;55421;51.600;5.718;2022-08-18T15:14:30;27.29;54.07
68439;SHT31;55421;51.600;5.718;2022-08-18T15:16:59;27.36;53.99
68439;SHT31;55421;51.600;5.718;2022-08-18T15:19:28;27.45;53.69
68439;SHT31;55421;51.600;5.718;2022-08-18T15:21:55;27.52;53.19
68439;SHT31;55421;51.600;5.718;2022-08-18T15:24:40;27.57;53.15
68439;SHT31;55421;51.600;5.718;2022-08-18T15:27:30;27.65;53.27
68439;SHT31;55421;51.600;5.718;2022-08-18T15:30:05;27.68;52.89
68439;SHT31;55421;51.600;5.718;2022-08-18T15:32:41;27.68;52.47
68439;SHT31;55421;51.600;5.718;2022-08-18T15:35:11;27.67;52.54
68439;SHT31;55421;51.600;5.718;2022-08-18T15:37:42;27.66;52.46
68439;SHT31;55421;51.600;5.718;2022-08-18T15:40:13;27.69;52.34
68439;SHT31;55421;51.600;5.718;2022-08-18T15:42:46;27.73;52.20
68439;SHT31;55421;51.600;5.718;2022-08-18T15:45:19;27.76;52.14
68439;SHT31;55421;51.600;5.718;2022-08-18T15:47:51;27.81;52.00
68439;SHT31;55421;51.600;5.718;2022-08-18T15:50:19;27.86;51.56
68439;SHT31;55421;51.600;5.718;2022-08-18T15:52:50;27.90;51.38
68439;SHT31;55421;51.600;5.718;2022-08-18T15:55:26;27.92;50.52
68439;SHT31;55421;51.600;5.718;2022-08-18T15:57:54;27.94;50.64
68439;SHT31;55421;51.600;5.718;2022-08-18T16:00:22;27.96;50.55
68439;SHT31;55421;51.600;5.718;2022-08-18T16:02:52;27.96;50.91
68439;SHT31;55421;51.600;5.718;2022-08-18T16:05:26;27.95;51.29
68439;SHT31;55421;51.600;5.718;2022-08-18T16:07:58;27.88;52.46
68439;SHT31;55421;51.600;5.718;2022-08-18T16:10:27;27.82;52.78
68439;SHT31;55421;51.600;5.718;2022-08-18T16:12:57;27.77;53.18
68439;SHT31;55421;51.600;5.718;2022-08-18T16:15:26;27.72;53.31
68439;SHT31;55421;51.600;5.718;2022-08-18T16:17:53;27.70;53.51
68439;SHT31;55421;51.600;5.718;2022-08-18T16:20:20;27.70;52.98
68439;SHT31;55421;51.600;5.718;2022-08-18T16:22:51;27.69;52.90
68439;SHT31;55421;51.600;5.718;2022-08-18T16:25:18;27.69;52.55
68439;SHT31;55421;51.600;5.718;2022-08-18T16:27:46;27.66;52.64
68439;SHT31;55421;51.600;5.718;2022-08-18T16:30:14;27.65;52.14
68439;SHT31;55421;51.600;5.718;2022-08-18T16:32:48;27.63;51.93
68439;SHT31;55421;51.600;5.718;2022-08-18T16:35:15;27.59;52.37
68439;SHT31;55421;51.600;5.718;2022-08-18T16:37:44;27.54;52.47
68439;SHT31;55421;51.600;5.718;2022-08-18T16:40:12;27.49;52.50
68439;SHT31;55421;51.600;5.718;2022-08-18T16:42:40;27.44;52.79
68439;SHT31;55421;51.600;5.718;2022-08-18T16:45:06;27.39;53.06
68439;SHT31;55421;51.600;5.718;2022-08-18T16:47:34;27.33;53.24
68439;SHT31;55421;51.600;5.718;2022-08-18T16:50:06;27.29;53.24
68439;SHT31;55421;51.600;5.718;2022-08-18T16:52:39;27.23;53.33
68439;SHT31;55421;51.600;5.718;2022-08-18T16:55:07;27.19;53.55
68439;SHT31;55421;51.600;5.718;2022-08-18T16:57:39;27.14;53.70
68439;SHT31;55421;51.600;5.718;2022-08-18T17:00:27;27.07;54.19
68439;SHT31;55421;51.600;5.718;2022-08-18T17:03:16;27.00;54.43
68439;SHT31;55421;51.600;5.718;2022-08-18T17:06:02;26.94;54.64
68439;SHT31;55421;51.600;5.718;2022-08-18T17:08:37;26.88;54.99
68439;SHT31;55421;51.600;5.718;2022-08-18T17:13:37;26.78;55.26
68439;SHT31;55421;51.600;5.718;2022-08-18T17:16:05;26.72;55.55
68439;SHT31;55421;51.600;5.718;2022-08-18T17:18:33;26.67;55.89
68439;SHT31;55421;51.600;5.718;2022-08-18T17:21:01;26.65;56.13
68439;SHT31;55421;51.600;5.718;2022-08-18T17:23:30;26.65;55.96
68439;SHT31;55421;51.600;5.718;2022-08-18T17:25:58;26.64;55.99
68439;SHT31;55421;51.600;5.718;2022-08-18T17:28:28;26.61;56.14
68439;SHT31;55421;51.600;5.718;2022-08-18T17:31:04;26.58;55.98
68439;SHT31;55421;51.600;5.718;2022-08-18T17:33:33;26.55;55.78
68439;SHT31;55421;51.600;5.718;2022-08-18T17:36:06;26.53;56.19
68439;SHT31;55421;51.600;5.718;2022-08-18T17:38:45;26.53;56.30
68439;SHT31;55421;51.600;5.718;2022-08-18T17:41:24;26.51;56.27
68439;SHT31;55421;51.600;5.718;2022-08-18T17:43:55;26.46;55.87
68439;SHT31;55421;51.600;5.718;2022-08-18T17:46:36;26.43;56.01
68439;SHT31;55421;51.600;5.718;2022-08-18T17:49:10;26.41;56.15
68439;SHT31;55421;51.600;5.718;2022-08-18T17:52:12;26.40;56.11
68439;SHT31;55421;51.600;5.718;2022-08-18T17:54:42;26.37;56.34
68439;SHT31;55421;51.600;5.718;2022-08-18T17:57:17;26.34;56.18
68439;SHT31;55421;51.600;5.718;2022-08-18T17:59:58;26.31;56.14
68439;SHT31;55421;51.600;5.718;2022-08-18T18:02:39;26.26;56.27
68439;SHT31;55421;51.600;5.718;2022-08-18T18:05:10;26.21;56.44
68439;SHT31;55421;51.600;5.718;2022-08-18T18:10:33;26.11;56.91
68439;SHT31;55421;51.600;5.718;2022-08-18T18:15:41;25.99;57.27
68439;SHT31;55421;51.600;5.718;2022-08-18T18:21:20;25.86;57.64
68439;SHT31;55421;51.600;5.718;2022-08-18T18:23:49;25.78;57.87
68439;SHT31;55421;51.600;5.718;2022-08-18T18:26:45;25.71;58.20
68439;SHT31;55421;51.600;5.718;2022-08-18T18:32:03;25.58;58.72
68439;SHT31;55421;51.600;5.718;2022-08-18T18:35:13;25.51;59.13
68439;SHT31;55421;51.600;5.718;2022-08-18T18:42:48;25.32;60.11
68439;SHT31;55421;51.600;5.718;2022-08-18T18:45:33;25.25;60.39
68439;SHT31;55421;51.600;5.718;2022-08-18T18:48:05;25.15;60.70
68439;SHT31;55421;51.600;5.718;2022-08-18T18:50:51;25.05;60.88
68439;SHT31;55421;51.600;5.718;2022-08-18T18:53:39;24.97;61.03
68439;SHT31;55421;51.600;5.718;2022-08-18T18:56:34;24.91;61.08
68439;SHT31;55421;51.600;5.718;2022-08-18T19:02:14;24.76;61.50
68439;SHT31;55421;51.600;5.718;2022-08-18T19:14:41;24.42;62.26
68439;SHT31;55421;51.600;5.718;2022-08-18T19:17:32;24.34;62.55
68439;SHT31;55421;51.600;5.718;2022-08-18T19:20:19;24.28;62.70
68439;SHT31;55421;51.600;5.718;2022-08-18T19:23:05;24.23;62.92
68439;SHT31;55421;51.600;5.718;2022-08-18T19:25:50;24.16;63.14
68439;SHT31;55421;51.600;5.718;2022-08-18T19:28:27;24.10;63.35
68439;SHT31;55421;51.600;5.718;2022-08-18T19:31:07;24.04;63.57
68439;SHT31;55421;51.600;5.718;2022-08-18T19:33:48;24.00;63.70
68439;SHT31;55421;51.600;5.718;2022-08-18T19:36:23;23.98;63.79
68439;SHT31;55421;51.600;5.718;2022-08-18T19:39:16;23.96;63.88
68439;SHT31;55421;51.600;5.718;2022-08-18T19:41:54;23.94;64.24
68439;SHT31;55421;51.600;5.718;2022-08-18T19:44:27;23.93;64.39